Time;durP1;ratioP1;P1;durP2;ratioP2;P2;SDS_P1;SDS_P2;PMS_P1;PMS_P2;Temp;Humidity;BMP_temperature;BMP_pressure;BME280_temperature;BME280_humidity;BME280_pressure;Samples;Min_cycle;Max_cycle;Signal;HPM_P1;HPM_P2
2022/05/28 00:10:18;;;;;;;8.95;2.22;;;;;;;12.84;100.00;99372.50;5120252;27;20151;-84
2022/05/28 00:12:47;;;;;;;6.90;2.17;;;;;;;12.89;100.00;99376.34;5118087;27;20475;-83
2022/05/28 00:15:13;;;;;;;11.38;2.00;;;;;;;12.87;100.00;99380.28;5111149;27;20065;-84
2022/05/28 00:17:42;;;;;;;9.45;2.42;;;;;;;12.76;94.40;99376.19;5112679;27;20047;-84
2022/05/28 00:20:11;;;;;;;6.43;2.35;;;;;;;12.68;97.14;99376.34;5117864;27;20058;-84
2022/05/28 00:22:38;;;;;;;11.13;3.08;;;;;;;12.69;97.39;99384.31;5109920;27;20478;-84
2022/05/28 00:25:06;;;;;;;11.38;2.58;;;;;;;12.67;100.00;99375.47;5110597;27;20108;-84
2022/05/28 00:27:34;;;;;;;5.70;2.05;;;;;;;12.59;96.59;99364.69;5121219;27;20410;-83
2022/05/28 00:30:01;;;;;;;7.15;2.25;;;;;;;12.70;94.97;99386.00;5119056;27;20050;-84
2022/05/28 00:32:28;;;;;;;7.53;2.38;;;;;;;12.48;93.32;99376.97;5119249;27;20054;-84
2022/05/28 00:34:56;;;;;;;6.45;1.95;;;;;;;12.29;90.20;99372.13;5111648;27;20058;-84
2022/05/28 00:37:23;;;;;;;5.90;1.90;;;;;;;12.45;89.58;99392.84;5113519;27;20066;-84
2022/05/28 00:39:49;;;;;;;6.88;2.00;;;;;;;12.39;90.09;99384.41;5118974;27;20490;-83
2022/05/28 00:42:16;;;;;;;8.18;2.15;;;;;;;12.33;98.20;99390.63;5126088;27;20043;-84
2022/05/28 00:44:44;;;;;;;15.35;3.17;;;;;;;12.27;100.00;99385.94;5122363;27;20047;-84
2022/05/28 00:47:11;;;;;;;7.05;2.15;;;;;;;12.46;100.00;99403.56;5116153;27;20483;-84
2022/05/28 00:49:37;;;;;;;16.88;2.60;;;;;;;12.37;100.00;99397.38;5122776;27;20043;-84
2022/05/28 00:52:07;;;;;;;11.80;2.53;;;;;;;12.28;100.00;99387.59;5121568;27;20055;-84
2022/05/28 00:54:38;;;;;;;7.18;2.58;;;;;;;12.31;100.00;99413.66;5113423;27;20494;-84
2022/05/28 00:57:06;;;;;;;7.90;2.40;;;;;;;12.32;100.00;99407.16;5121168;27;20050;-84
2022/05/28 00:59:33;;;;;;;7.30;2.45;;;;;;;12.21;100.00;99398.44;5119269;28;20371;-84
2022/05/28 01:02:07;;;;;;;7.57;2.33;;;;;;;12.21;100.00;99420.25;5120841;28;20473;-86
2022/05/28 01:04:43;;;;;;;8.15;2.20;;;;;;;12.08;100.00;99422.78;5120377;28;20072;-84
2022/05/28 01:07:24;;;;;;;9.95;2.10;;;;;;;12.17;98.98;99427.09;5096526;28;20047;-85
2022/05/28 01:10:03;;;;;;;9.32;2.15;;;;;;;11.95;91.88;99393.44;5114660;28;20285;-85
2022/05/28 01:12:36;;;;;;;5.53;1.75;;;;;;;12.15;90.19;99422.84;5116399;28;20342;-84
2022/05/28 01:15:09;;;;;;;5.55;1.70;;;;;;;12.15;84.07;99412.81;5115520;28;20055;-85
2022/05/28 01:17:41;;;;;;;10.15;2.40;;;;;;;12.08;87.05;99405.59;5116462;28;20047;-85
2022/05/28 01:26:58;;;;;;;6.25;1.60;;;;;;;12.03;86.59;99417.06;5118640;28;20398;-86
2022/05/28 01:29:29;;;;;;;9.98;1.90;;;;;;;11.87;89.86;99385.34;5120014;28;20478;-85
2022/05/28 01:31:57;;;;;;;7.93;1.83;;;;;;;11.89;86.58;99426.88;5121180;28;20075;-85
2022/05/28 01:34:27;;;;;;;12.52;2.00;;;;;;;11.89;87.43;99424.16;5118209;28;20469;-85
2022/05/28 01:36:56;;;;;;;8.77;1.98;;;;;;;11.99;83.40;99427.47;5113845;28;20398;-85
2022/05/28 01:39:24;;;;;;;8.65;1.90;;;;;;;11.80;85.79;99398.03;5120755;27;20051;-85
2022/05/28 01:41:56;;;;;;;3.78;1.30;;;;;;;11.90;89.81;99403.22;5130585;27;20053;-85
2022/05/28 01:44:24;;;;;;;12.52;3.47;;;;;;;11.76;84.31;99397.56;5133502;27;20124;-85
2022/05/28 01:46:52;;;;;;;7.68;1.98;;;;;;;11.81;86.32;99414.19;5129337;27;20555;-85
2022/05/28 01:49:21;;;;;;;8.48;1.88;;;;;;;11.62;93.64;99391.09;5118976;27;20067;-85
2022/05/28 01:51:51;;;;;;;13.33;2.57;;;;;;;11.46;97.21;99378.47;5118151;27;20482;-85
2022/05/28 01:54:19;;;;;;;;;;;;;;;11.57;95.64;99412.56;5124698;27;20071;-85
2022/05/28 01:56:50;;;;;;;4.47;1.75;;;;;;;11.59;100.00;99415.97;5125321;27;19942;-86
2022/05/28 01:59:21;;;;;;;8.73;2.00;;;;;;;11.44;100.00;99393.28;5124714;27;20471;-84
2022/05/28 02:01:48;;;;;;;6.63;1.75;;;;;;;11.34;98.75;99386.25;5125003;27;20047;-85
2022/05/28 02:04:16;;;;;;;5.57;1.98;;;;;;;11.40;100.00;99409.16;5120013;27;20047;-85
2022/05/28 02:06:43;;;;;;;6.18;2.10;;;;;;;11.48;100.00;99409.06;5128869;27;20050;-82
2022/05/28 02:09:13;;;;;;;5.68;2.28;;;;;;;11.25;100.00;99392.78;5104307;27;20130;-85
2022/05/28 02:11:56;;;;;;;8.40;2.20;;;;;;;11.19;100.00;99407.13;5125646;27;20081;-86
2022/05/28 02:14:31;;;;;;;10.25;2.30;;;;;;;11.26;100.00;99404.50;5121731;27;20058;-85
2022/05/28 02:17:08;;;;;;;9.48;2.15;;;;;;;10.94;100.00;99385.59;5116305;27;20043;-85
2022/05/28 02:19:44;;;;;;;9.57;2.20;;;;;;;10.85;100.00;99374.94;5124974;27;20043;-86
2022/05/28 02:22:18;;;;;;;7.85;2.22;;;;;;;10.91;100.00;99398.69;5123130;27;20042;-86
2022/05/28 02:24:51;;;;;;;6.63;2.67;;;;;;;10.80;100.00;99389.06;5128429;27;20043;-86
2022/05/28 02:27:21;;;;;;;9.40;2.33;;;;;;;10.82;100.00;99400.59;5126477;27;20058;-86
2022/05/28 02:29:49;;;;;;;6.72;2.28;;;;;;;10.62;100.00;99400.22;5118703;27;20052;-86
2022/05/28 02:32:19;;;;;;;4.53;1.67;;;;;;;10.38;100.00;99368.63;5113720;27;20047;-85
2022/05/28 02:34:46;;;;;;;;;;;;;;;10.57;100.00;99406.22;5126618;27;20055;-86
2022/05/28 02:37:14;;;;;;;7.35;1.90;;;;;;;10.50;100.00;99390.81;5122846;27;19928;-84
2022/05/28 02:39:43;;;;;;;8.38;2.15;;;;;;;10.37;100.00;99400.38;5121323;27;20047;-85
2022/05/28 02:42:10;;;;;;;12.00;2.00;;;;;;;10.15;100.00;99393.81;5124382;27;20387;-85
2022/05/28 02:44:36;;;;;;;8.25;1.80;;;;;;;10.03;100.00;99395.25;5126300;27;20110;-85
2022/05/28 02:47:05;;;;;;;7.57;2.20;;;;;;;9.97;100.00;99388.63;5115571;27;20051;-85
2022/05/28 02:49:32;;;;;;;4.55;1.75;;;;;;;9.82;100.00;99395.81;5114858;27;20097;-85
2022/05/28 02:52:03;;;;;;;7.88;2.50;;;;;;;9.88;100.00;99400.56;5124261;27;20417;-84
2022/05/28 02:54:30;;;;;;;7.03;2.13;;;;;;;9.81;100.00;99405.81;5125920;27;20053;-85
2022/05/28 02:56:57;;;;;;;9.00;1.52;;;;;;;9.64;100.00;99372.44;5126770;27;20245;-85
2022/05/28 02:59:24;;;;;;;5.80;2.00;;;;;;;9.48;100.00;99405.06;5123843;27;20047;-85
2022/05/28 03:01:51;;;;;;;7.57;2.25;;;;;;;9.45;100.00;99408.94;5123710;27;20039;-85
2022/05/28 03:38:08;;;;;;;10.18;1.92;;;;;;;8.32;100.00;99415.78;5111827;27;20050;-84
2022/05/28 03:40:35;;;;;;;6.57;1.90;;;;;;;8.24;100.00;99406.78;5117291;27;20054;-84
2022/05/28 03:43:02;;;;;;;7.18;2.15;;;;;;;8.07;100.00;99404.00;5115744;27;20403;-84
2022/05/28 03:45:29;;;;;;;4.55;1.88;;;;;;;8.09;100.00;99418.22;5124436;27;20050;-84
2022/05/28 03:47:56;;;;;;;9.20;2.13;;;;;;;8.16;100.00;99440.09;5115689;27;20044;-84
2022/05/28 03:50:23;;;;;;;7.75;1.88;;;;;;;8.21;100.00;99421.47;5127522;27;20105;-84
2022/05/28 03:52:49;;;;;;;8.65;2.20;;;;;;;8.15;100.00;99424.84;5122063;27;20058;-84
2022/05/28 03:55:17;;;;;;;11.07;2.03;;;;;;;8.06;100.00;99447.47;5115218;27;20050;-84
2022/05/28 03:57:46;;;;;;;9.80;2.00;;;;;;;8.17;100.00;99441.78;5114051;27;20056;-84
2022/05/28 04:00:16;;;;;;;7.70;1.98;;;;;;;8.18;100.00;99448.06;5116405;27;20048;-83
2022/05/28 04:02:43;;;;;;;7.03;2.38;;;;;;;8.18;100.00;99453.47;5110290;28;20043;-83
2022/05/28 04:05:10;;;;;;;7.85;2.33;;;;;;;7.87;100.00;99429.63;5120535;27;20035;-83
2022/05/28 04:07:37;;;;;;;15.07;2.22;;;;;;;8.07;100.00;99466.28;5118076;27;20078;-84
2022/05/28 04:10:04;;;;;;;10.63;2.10;;;;;;;7.89;100.00;99449.22;5122692;27;20044;-84
2022/05/28 04:12:34;;;;;;;8.05;1.60;;;;;;;7.98;100.00;99457.25;5110957;27;20064;-83
2022/05/28 04:15:00;;;;;;;8.37;3.03;;;;;;;7.98;100.00;99446.44;5111356;27;20039;-83
2022/05/28 04:17:27;;;;;;;12.07;2.78;;;;;;;8.03;100.00;99453.22;5114575;27;20392;-84
2022/05/28 04:19:53;;;;;;;7.95;1.73;;;;;;;8.00;100.00;99469.78;5115801;27;20056;-84
2022/05/28 04:22:20;;;;;;;13.07;2.30;;;;;;;8.11;100.00;99464.94;5125774;27;20062;-84
2022/05/28 04:24:47;;;;;;;10.50;2.42;;;;;;;8.27;100.00;99466.88;5114515;27;20054;-84
2022/05/28 04:27:13;;;;;;;11.00;1.83;;;;;;;8.38;100.00;99437.78;5120405;27;20053;-83
2022/05/28 04:29:41;;;;;;;7.60;2.17;;;;;;;8.32;100.00;99436.59;5118727;27;20036;-83
2022/05/28 04:32:09;;;;;;;9.38;2.08;;;;;;;8.50;100.00;99461.72;5117366;27;20051;-84
2022/05/28 04:34:35;;;;;;;8.82;1.90;;;;;;;8.56;100.00;99467.53;5118259;27;20043;-83
2022/05/28 04:37:02;;;;;;;9.10;1.98;;;;;;;8.56;100.00;99453.97;5115775;27;20044;-83
2022/05/28 04:39:28;;;;;;;7.53;1.85;;;;;;;8.51;100.00;99451.75;5097991;28;20066;-83
2022/05/28 04:41:55;;;;;;;4.78;1.60;;;;;;;8.61;100.00;99465.16;5123455;27;20402;-83
2022/05/28 04:44:22;;;;;;;5.85;2.17;;;;;;;8.72;100.00;99469.44;5117853;27;20394;-83
2022/05/28 04:46:50;;;;;;;8.80;2.25;;;;;;;8.80;100.00;99475.72;5129097;27;20122;-83
2022/05/28 04:49:16;;;;;;;12.02;2.05;;;;;;;8.83;100.00;99469.13;5127294;27;20050;-83
2022/05/28 04:51:43;;;;;;;2.95;1.73;;;;;;;8.88;100.00;99469.44;5125808;27;20051;-82
2022/05/28 04:54:09;;;;;;;6.38;1.80;;;;;;;8.94;100.00;99463.38;5127862;27;20064;-82
2022/05/28 04:56:36;;;;;;;7.40;2.65;;;;;;;9.09;100.00;99481.69;5130240;27;20044;-82
2022/05/28 04:59:03;;;;;;;5.85;1.80;;;;;;;9.37;100.00;99483.06;5128569;27;20039;-82
2022/05/28 05:01:30;;;;;;;5.43;1.75;;;;;;;10.02;100.00;99465.00;5117701;27;20044;-82
2022/05/28 05:03:57;;;;;;;5.93;1.90;;;;;;;10.72;100.00;99479.72;5121652;28;20048;-83
2022/05/28 05:06:24;;;;;;;6.68;1.33;;;;;;;11.36;98.16;99477.75;5113398;28;20058;-83
2022/05/28 05:08:51;;;;;;;7.20;1.98;;;;;;;12.00;90.61;99475.50;5114345;28;20058;-84
2022/05/28 05:11:17;;;;;;;12.10;2.58;;;;;;;12.20;87.50;99485.84;5121845;28;20375;-83
2022/05/28 05:13:44;;;;;;;8.23;2.10;;;;;;;12.33;88.76;99477.84;5126475;28;20074;-83
2022/05/28 05:16:11;;;;;;;12.00;2.65;;;;;;;12.05;89.12;99450.41;5117472;27;20046;-83
2022/05/28 05:18:39;;;;;;;9.43;1.80;;;;;;;12.33;86.50;99457.91;5117144;27;20049;-83
2022/05/28 05:21:07;;;;;;;7.63;2.17;;;;;;;12.71;81.08;99474.97;5127432;27;20347;-84
2022/05/28 05:23:33;;;;;;;8.60;2.22;;;;;;;12.34;80.72;99465.06;5116777;27;20079;-84
2022/05/28 05:26:00;;;;;;;11.43;1.90;;;;;;;12.56;82.48;99490.53;5135018;27;20054;-84
2022/05/28 05:28:27;;;;;;;6.72;2.20;;;;;;;12.35;77.98;99472.22;5124775;27;20494;-82
2022/05/28 05:30:53;;;;;;;11.75;2.30;;;;;;;12.47;74.34;99483.50;5125637;27;20131;-83
2022/05/28 05:33:20;;;;;;;9.85;2.20;;;;;;;12.65;75.96;99477.63;5119398;27;20040;-83
2022/05/28 05:35:46;;;;;;;9.10;2.08;;;;;;;13.33;73.49;99483.63;5124645;27;20055;-83
2022/05/28 05:38:14;;;;;;;5.43;1.75;;;;;;;13.34;71.09;99466.25;5128848;27;20055;-83
2022/05/28 05:40:41;;;;;;;8.55;2.35;;;;;;;13.87;71.25;99495.06;5116838;27;20048;-83
2022/05/28 05:43:07;;;;;;;12.77;2.25;;;;;;;14.02;67.17;99489.50;5116928;27;20044;-83
2022/05/28 05:45:34;;;;;;;5.88;1.60;;;;;;;13.91;65.90;99493.59;5129532;27;20047;-83
2022/05/28 05:48:01;;;;;;;11.82;1.73;;;;;;;14.22;65.66;99493.19;5130344;27;20074;-79
2022/05/28 05:50:28;;;;;;;9.98;1.77;;;;;;;14.19;65.02;99484.56;5118384;27;20054;-80
2022/05/28 05:52:54;;;;;;;9.18;2.85;;;;;;;14.41;63.12;99486.16;5114789;27;20403;-79
2022/05/28 05:55:22;;;;;;;9.00;1.80;;;;;;;14.29;62.76;99482.31;5116007;27;20039;-80
2022/05/28 05:57:50;;;;;;;10.63;2.00;;;;;;;14.24;63.94;99491.13;5129270;27;20055;-85
2022/05/28 06:00:17;;;;;;;6.97;1.75;;;;;;;14.83;62.94;99492.50;5128153;27;20074;-84
2022/05/28 06:02:44;;;;;;;6.25;1.88;;;;;;;15.04;61.50;99486.03;5122012;27;20039;-85
2022/05/28 06:05:10;;;;;;;7.15;2.20;;;;;;;14.72;61.45;99484.03;5123620;27;20054;-84
2022/05/28 06:07:38;;;;;;;9.23;2.30;;;;;;;14.72;60.81;99479.38;5123990;27;20044;-84
2022/05/28 06:10:08;;;;;;;11.57;1.80;;;;;;;14.91;61.29;99480.50;5130904;27;20093;-85
2022/05/28 06:12:36;;;;;;;;;;;;;;;15.31;58.96;99487.97;5116820;28;20044;-85
2022/05/28 06:15:06;;;;;;;6.55;1.55;;;;;;;15.22;59.29;99490.94;5117636;27;20023;-85
2022/05/28 06:17:34;;;;;;;22.95;4.53;;;;;;;15.34;56.58;99484.81;5125907;27;20047;-85
2022/05/28 06:20:01;;;;;;;4.90;1.27;;;;;;;14.97;56.93;99487.91;5123073;27;20044;-85
2022/05/28 06:22:27;;;;;;;4.88;1.50;;;;;;;15.31;58.47;99486.09;5115942;28;20055;-85
2022/05/28 06:24:55;;;;;;;9.48;1.58;;;;;;;15.43;56.45;99483.59;5121366;27;20047;-85
2022/05/28 06:27:23;;;;;;;5.28;1.42;;;;;;;15.71;56.07;99486.13;5125810;27;20044;-85
2022/05/28 06:29:52;;;;;;;9.75;1.83;;;;;;;15.99;56.48;99484.25;5117890;27;20069;-86
2022/05/28 06:32:19;;;;;;;6.00;1.67;;;;;;;16.09;53.61;99487.41;5119495;27;20043;-87
2022/05/28 06:34:46;;;;;;;11.02;2.00;;;;;;;16.33;52.83;99483.13;5123974;27;20046;-87
2022/05/28 06:37:14;;;;;;;4.15;1.23;;;;;;;15.85;53.17;99487.03;5123064;27;20141;-85
2022/05/28 06:42:23;;;;;;;9.68;2.00;;;;;;;15.69;51.64;99463.56;5119090;22;20089;-88
2022/05/28 06:44:51;;;;;;;6.55;1.45;;;;;;;15.95;51.76;99461.91;5107136;28;20558;-84
2022/05/28 06:47:21;;;;;;;6.32;1.67;;;;;;;16.07;52.91;99486.78;5095284;28;20546;-88
2022/05/28 06:51:01;;;;;;;;;;;;;;;16.45;51.63;99495.16;5107807;28;20078;-86
2022/05/28 06:52:35;;;;;;;5.60;1.42;;;;;;;16.23;49.66;99475.38;5105281;28;19942;-86
2022/05/28 06:55:02;;;;;;;11.55;1.70;;;;;;;16.15;49.51;99481.06;5110665;28;20097;-84
2022/05/28 06:57:28;;;;;;;12.38;1.40;;;;;;;16.31;48.79;99485.25;5106636;28;20052;-82
2022/05/28 07:00:02;;;;;;;5.40;1.65;;;;;;;15.87;50.27;99468.44;5104939;28;20062;-86
2022/05/28 07:02:28;;;;;;;9.65;1.48;;;;;;;16.15;50.46;99463.78;5100307;28;20109;-85
2022/05/28 07:04:55;;;;;;;4.82;1.27;;;;;;;16.22;49.71;99486.56;5112120;28;20093;-85
2022/05/28 07:07:21;;;;;;;14.65;1.80;;;;;;;16.17;51.21;99489.06;5093680;28;20054;-85
2022/05/28 07:09:48;;;;;;;9.02;1.85;;;;;;;16.00;50.87;99484.03;5095430;28;20055;-86
2022/05/28 07:12:18;;;;;;;9.30;1.67;;;;;;;16.24;50.10;99474.31;5097369;28;20051;-87
2022/05/28 07:31:37;;;;;;;7.43;1.58;;;;;;;17.37;47.68;99460.31;5102378;28;20441;-86
2022/05/28 07:34:04;;;;;;;5.05;1.65;;;;;;;17.16;46.67;99456.84;5112438;28;20048;-86
2022/05/28 07:36:34;;;;;;;9.05;1.50;;;;;;;17.07;46.34;99463.66;5113276;28;20574;-83
2022/05/28 07:39:01;;;;;;;5.00;1.10;;;;;;;16.63;46.82;99464.28;5097226;28;20488;-85
2022/05/28 07:41:28;;;;;;;4.93;1.40;;;;;;;16.82;48.19;99458.91;5101190;28;20067;-85
2022/05/28 07:43:56;;;;;;;5.68;1.60;;;;;;;17.00;48.95;99444.47;5094688;28;20047;-86
2022/05/28 07:46:27;;;;;;;4.53;1.35;;;;;;;17.07;47.53;99445.28;5101385;28;20047;-86
2022/05/28 07:48:57;;;;;;;7.18;1.83;;;;;;;17.07;47.55;99466.41;5107986;28;20054;-84
2022/05/28 07:51:24;;;;;;;6.13;1.63;;;;;;;16.27;49.07;99435.47;5103021;28;20505;-86
2022/05/28 07:53:54;;;;;;;6.20;1.40;;;;;;;16.60;50.48;99433.66;5113213;28;20501;-86
2022/05/28 08:23:21;;;;;;;6.15;1.52;;;;;;;17.15;47.44;99427.69;5108568;28;20598;-83
2022/05/28 08:25:49;;;;;;;5.07;1.30;;;;;;;17.22;46.63;99425.72;5098738;28;20056;-84
2022/05/28 08:28:18;;;;;;;10.60;0.95;;;;;;;17.19;46.74;99406.94;5098556;28;20123;-85
2022/05/28 08:30:45;;;;;;;6.82;1.08;;;;;;;17.73;46.56;99425.75;5108660;28;20105;-84
2022/05/28 08:33:16;;;;;;;5.32;1.05;;;;;;;18.14;45.39;99429.81;5097087;28;20059;-85
2022/05/28 08:35:45;;;;;;;1.48;0.90;;;;;;;18.27;45.26;99417.84;5089869;28;20067;-84
2022/05/28 08:38:17;;;;;;;6.10;1.38;;;;;;;17.36;45.30;99425.63;5106084;28;20040;-82
2022/05/28 08:40:48;;;;;;;5.20;0.95;;;;;;;16.26;47.36;99427.47;5094408;28;20052;-84
2022/05/28 08:43:16;;;;;;;5.40;1.05;;;;;;;16.23;48.72;99433.38;5102821;28;20044;-84
2022/05/28 08:45:44;;;;;;;4.50;1.30;;;;;;;16.43;48.34;99427.81;5095253;28;20471;-84
2022/05/28 08:48:16;;;;;;;7.70;1.33;;;;;;;16.33;47.33;99433.75;5106532;28;20071;-83
2022/05/28 08:50:49;;;;;;;6.40;1.17;;;;;;;16.36;46.24;99433.31;5108403;28;20052;-82
2022/05/28 08:53:26;;;;;;;5.30;1.30;;;;;;;16.06;48.58;99419.28;5106040;28;20053;-84
2022/05/28 09:16:32;;;;;;;8.35;1.33;;;;;;;16.90;46.29;99395.53;5106905;28;20039;-83
2022/05/28 09:19:04;;;;;;;5.97;1.33;;;;;;;16.58;47.15;99416.56;5098775;28;20048;-84
2022/05/28 09:31:54;;;;;;;4.95;1.20;;;;;;;17.19;46.27;99408.84;5095695;28;20039;-84
2022/05/28 09:47:52;;;;;;;5.43;1.35;;;;;;;15.87;49.90;99410.88;5104897;28;20411;-83
2022/05/28 09:50:26;;;;;;;3.05;1.23;;;;;;;15.84;50.88;99383.91;5090581;28;20047;-84
2022/05/28 10:02:36;;;;;;;6.20;1.15;;;;;;;16.71;49.17;99378.09;5111462;28;20180;-84
2022/05/28 10:18:36;;;;;;;4.28;1.13;;;;;;;16.15;48.34;99382.31;5107043;28;20043;-85
2022/05/28 10:21:09;;;;;;;7.13;1.40;;;;;;;16.11;49.69;99386.56;5112859;28;20050;-85
2022/05/28 10:23:38;;;;;;;5.47;1.38;;;;;;;16.36;45.42;99383.94;5114497;28;20134;-84
2022/05/28 10:26:06;;;;;;;6.32;1.55;;;;;;;17.15;44.30;99351.63;5113751;28;20471;-84
2022/05/28 10:28:45;;;;;;;7.07;1.27;;;;;;;17.73;42.62;99359.78;5103518;28;20051;-85
2022/05/28 10:31:18;;;;;;;7.30;1.17;;;;;;;18.07;41.84;99349.31;5113101;28;20142;-85
2022/05/28 10:33:47;;;;;;;8.02;1.27;;;;;;;17.73;41.24;99337.78;5098373;28;20048;-85
2022/05/28 10:36:18;;;;;;;23.17;1.45;;;;;;;16.95;43.08;99326.19;5094016;28;20052;-83
2022/05/28 10:38:45;;;;;;;4.15;1.13;;;;;;;16.83;43.42;99331.56;5093965;28;20048;-82
2022/05/28 10:41:17;;;;;;;5.63;1.50;;;;;;;16.73;44.51;99337.53;5098451;28;20058;-82
2022/05/28 10:43:44;;;;;;;4.18;1.05;;;;;;;17.33;42.87;99350.84;5102839;28;20039;-83
2022/05/28 10:46:21;;;;;;;6.25;1.35;;;;;;;17.40;43.26;99347.19;5113846;28;20051;-84
2022/05/28 10:49:04;;;;;;;4.20;1.17;;;;;;;17.56;42.00;99340.28;5113733;28;20131;-84
2022/05/28 10:51:38;;;;;;;7.55;1.30;;;;;;;16.93;41.05;99339.31;5114313;28;20402;-82
2022/05/28 10:54:18;;;;;;;6.05;1.50;;;;;;;16.63;43.36;99334.41;5111655;28;20047;-84
2022/05/28 10:56:53;;;;;;;11.80;1.38;;;;;;;16.47;43.86;99357.75;5107705;28;20063;-83
2022/05/28 10:59:47;;;;;;;3.75;0.90;;;;;;;16.40;44.38;99344.03;5104265;28;20044;-82
2022/05/28 11:02:56;;;;;;;5.13;1.05;;;;;;;16.75;44.26;99345.53;5109915;28;20052;-83
2022/05/28 11:05:42;;;;;;;7.38;2.25;;;;;;;17.51;42.92;99327.22;5098447;28;20051;-84
2022/05/28 11:08:18;;;;;;;5.40;1.27;;;;;;;17.79;41.28;99328.63;5114610;28;20134;-84
2022/05/28 11:11:02;;;;;;;7.07;0.95;;;;;;;17.85;39.99;99312.06;5113996;28;20056;-83
2022/05/28 11:13:41;;;;;;;7.90;1.13;;;;;;;18.41;40.85;99323.03;5108690;28;20040;-85
2022/05/28 11:16:28;;;;;;;5.30;1.30;;;;;;;18.82;41.69;99306.78;5094941;28;20131;-85
2022/05/28 11:19:06;;;;;;;7.85;1.10;;;;;;;18.67;40.53;99334.75;5093661;28;20054;-84
2022/05/28 11:21:55;;;;;;;10.98;1.92;;;;;;;18.26;40.35;99319.84;5108127;28;20040;-85
2022/05/28 11:24:47;;;;;;;2.75;1.13;;;;;;;17.65;41.18;99301.25;5093109;28;20130;-84
2022/05/28 11:27:22;;;;;;;3.85;0.95;;;;;;;17.56;40.94;99316.38;5099829;28;20155;-84
2022/05/28 11:29:55;;;;;;;3.38;0.77;;;;;;;17.56;39.40;99296.31;5093020;28;20159;-84
2022/05/28 11:32:25;;;;;;;4.13;0.98;;;;;;;17.64;40.59;99296.00;5092409;28;20105;-84
2022/05/28 11:34:56;;;;;;;4.18;0.90;;;;;;;17.66;41.31;99300.22;5092754;28;20054;-84
2022/05/28 11:37:30;;;;;;;4.95;1.17;;;;;;;18.21;41.80;99313.13;5096169;28;20035;-85
2022/05/28 11:40:02;;;;;;;3.65;0.90;;;;;;;18.62;41.17;99299.66;5102021;28;20050;-85
2022/05/28 11:42:39;;;;;;;6.45;1.10;;;;;;;18.77;39.92;99295.63;5112280;28;20055;-84
2022/05/28 11:45:09;;;;;;;6.65;1.00;;;;;;;18.38;38.64;99287.72;5099589;28;20048;-83
2022/05/28 11:47:46;;;;;;;3.28;0.93;;;;;;;18.33;38.92;99291.16;5094760;28;20119;-85
2022/05/28 11:53:19;;;;;;;2.47;0.90;;;;;;;17.80;40.81;99281.66;5079136;28;20055;-84
2022/05/28 11:55:50;;;;;;;3.30;0.88;;;;;;;17.80;40.56;99289.06;5100602;28;20126;-81
2022/05/28 11:58:19;;;;;;;7.47;1.33;;;;;;;17.62;40.42;99276.97;5090286;28;20130;-84
2022/05/28 12:00:52;;;;;;;8.70;1.58;;;;;;;17.07;41.90;99252.16;5089819;28;20054;-83
2022/05/28 12:03:21;;;;;;;8.70;1.55;;;;;;;17.31;41.54;99259.56;5089197;28;20474;-83
2022/05/28 12:05:52;;;;;;;6.03;1.13;;;;;;;17.41;41.28;99255.44;5085707;28;20135;-84
2022/05/28 12:08:31;;;;;;;3.00;1.00;;;;;;;17.02;42.60;99244.59;5089948;28;20044;-83
2022/05/28 12:11:01;;;;;;;4.55;1.13;;;;;;;17.32;43.46;99260.41;5094515;28;20059;-85
2022/05/28 12:13:30;;;;;;;;;;;;;;;17.38;42.99;99272.38;5109615;28;20059;-84
2022/05/28 12:16:06;;;;;;;4.20;1.13;;;;;;;17.44;42.53;99244.81;5111711;28;19973;-85
2022/05/28 12:18:34;;;;;;;4.03;0.82;;;;;;;18.11;41.99;99257.81;5102635;28;20055;-85
2022/05/28 12:21:02;;;;;;;3.53;1.10;;;;;;;18.39;39.78;99228.84;5095916;28;20063;-86
2022/05/28 12:23:34;;;;;;;4.78;1.35;;;;;;;18.71;38.81;99248.69;5109247;28;20047;-85
2022/05/28 12:26:03;;;;;;;4.00;1.13;;;;;;;18.71;38.92;99234.94;5107502;28;20059;-85
2022/05/28 12:28:49;;;;;;;2.35;1.10;;;;;;;19.48;37.79;99244.22;5094641;28;20467;-86
2022/05/28 12:31:28;;;;;;;6.75;1.23;;;;;;;19.38;36.92;99217.25;5110614;28;20055;-86
2022/05/28 12:33:58;;;;;;;3.30;1.10;;;;;;;18.88;37.35;99202.03;5108209;28;20108;-86
2022/05/28 12:36:31;;;;;;;4.78;1.23;;;;;;;19.18;39.19;99208.50;5094120;28;20040;-85
2022/05/28 12:39:05;;;;;;;2.70;0.90;;;;;;;18.95;37.75;99215.69;5089883;28;20404;-83
2022/05/28 12:41:34;;;;;;;7.05;0.90;;;;;;;18.84;37.89;99222.84;5092227;28;20050;-85
2022/05/28 12:44:09;;;;;;;6.75;1.75;;;;;;;18.21;37.76;99207.72;5091060;28;20135;-85
2022/05/28 12:46:40;;;;;;;2.80;0.70;;;;;;;17.99;36.04;99211.00;5097753;28;20070;-84
2022/05/28 12:49:10;;;;;;;5.45;0.90;;;;;;;17.89;38.20;99218.09;5094014;28;20054;-85
2022/05/28 12:51:44;;;;;;;;;;;;;;;17.86;37.59;99213.91;5100629;28;20079;-85
2022/05/28 12:54:23;;;;;;;2.58;0.77;;;;;;;17.48;38.47;99202.09;5109542;28;19920;-86
2022/05/28 12:56:50;;;;;;;3.55;0.85;;;;;;;17.42;38.94;99200.25;5109934;28;20055;-83
2022/05/28 12:59:32;;;;;;;2.30;0.70;;;;;;;17.62;38.00;99212.94;5107989;28;20079;-85
2022/05/28 13:02:02;;;;;;;4.47;1.27;;;;;;;17.59;39.33;99200.47;5100787;28;20072;-85
2022/05/28 13:04:32;;;;;;;6.30;1.23;;;;;;;17.58;39.50;99211.69;5089984;28;20502;-86
2022/05/28 13:07:01;;;;;;;6.50;0.90;;;;;;;18.12;38.49;99179.69;5095651;28;20546;-86
2022/05/28 13:09:31;;;;;;;1.35;0.77;;;;;;;19.07;37.80;99201.91;5104640;28;20040;-86
2022/05/28 13:12:07;;;;;;;3.83;0.88;;;;;;;18.44;37.01;99195.97;5097982;28;20084;-87
2022/05/28 13:15:05;;;;;;;2.45;0.52;;;;;;;17.76;39.10;99183.34;5088865;28;20077;-89
2022/05/28 13:17:53;;;;;;;8.77;2.25;;;;;;;18.25;38.23;99178.69;5090437;28;20056;-84
2022/05/28 13:20:38;;;;;;;3.95;0.90;;;;;;;18.50;36.75;99174.91;5089914;28;20101;-84
2022/05/28 13:23:21;;;;;;;6.07;1.00;;;;;;;18.70;36.91;99169.91;5102230;28;20048;-86
2022/05/28 13:26:21;;;;;;;2.33;0.73;;;;;;;19.31;36.65;99144.88;5095680;28;21028;-87
2022/05/28 13:29:07;;;;;;;1.73;0.68;;;;;;;19.32;35.71;99154.81;5097521;28;20062;-87
2022/05/28 13:31:41;;;;;;;3.50;0.70;;;;;;;19.60;34.91;99147.66;5110115;28;20105;-88
2022/05/28 13:34:19;;;;;;;4.30;0.73;;;;;;;19.54;34.48;99154.16;5110065;28;20158;-84
2022/05/28 13:36:46;;;;;;;6.68;1.00;;;;;;;19.61;36.61;99149.34;5111941;28;20067;-86
2022/05/28 13:39:13;;;;;;;4.60;0.65;;;;;;;18.95;35.85;99149.59;5113889;28;20044;-83
2022/05/28 13:41:45;;;;;;;2.28;0.88;;;;;;;18.57;35.95;99162.69;5114326;28;20048;-84
2022/05/28 13:44:16;;;;;;;3.85;0.98;;;;;;;17.85;38.41;99125.06;5108429;28;20047;-87
2022/05/28 13:46:52;;;;;;;2.65;0.88;;;;;;;17.94;37.34;99147.59;5109532;28;20055;-87
2022/05/28 13:49:22;;;;;;;2.15;0.88;;;;;;;18.32;37.81;99151.91;5110958;28;20058;-87
2022/05/28 13:51:54;;;;;;;2.50;0.73;;;;;;;17.84;38.09;99142.63;5098344;28;20430;-86
2022/05/28 13:54:21;;;;;;;4.05;0.70;;;;;;;17.93;37.89;99126.69;5092930;28;20048;-86
2022/05/28 13:56:55;;;;;;;4.85;1.10;;;;;;;18.18;38.92;99145.75;5093173;28;20056;-85
2022/05/28 13:59:34;;;;;;;3.03;0.90;;;;;;;18.15;37.99;99139.88;5100412;28;20494;-86
2022/05/28 14:02:02;;;;;;;4.07;0.87;;;;;;;18.11;38.09;99128.53;5092614;28;20140;-86
2022/05/28 14:04:32;;;;;;;4.45;0.88;;;;;;;18.19;37.53;99113.59;5093168;28;20802;-86
2022/05/28 14:07:02;;;;;;;3.67;0.82;;;;;;;17.98;38.51;99134.22;5108823;28;20059;-86
2022/05/28 14:09:33;;;;;;;;;;;;;;;18.04;39.02;99134.13;5093545;28;20087;-86
2022/05/28 14:12:03;;;;;;;6.00;0.93;;;;;;;17.84;39.86;99126.13;5092862;28;19926;-87
2022/05/28 14:14:31;;;;;;;3.60;0.80;;;;;;;17.50;39.24;99113.91;5110242;28;20055;-86
2022/05/28 14:17:03;;;;;;;4.20;0.90;;;;;;;17.33;39.77;99128.28;5107486;28;20471;-86
2022/05/28 14:19:40;;;;;;;4.20;0.90;;;;;;;17.46;39.64;99127.28;5113897;28;20109;-86
2022/05/28 14:22:19;;;;;;;4.90;0.93;;;;;;;17.30;40.93;99100.44;5111605;28;20134;-86
2022/05/28 14:24:48;;;;;;;3.88;1.10;;;;;;;17.46;40.84;99127.28;5104099;28;20044;-85
2022/05/28 14:27:20;;;;;;;1.73;0.85;;;;;;;17.32;41.12;99107.34;5113436;28;20564;-87
2022/05/28 14:29:49;;;;;;;3.97;0.85;;;;;;;17.56;40.62;99102.00;5111809;28;20062;-87
2022/05/28 14:32:18;;;;;;;5.65;1.30;;;;;;;17.96;39.41;99103.34;5108953;28;20052;-85
2022/05/28 14:34:47;;;;;;;4.22;0.95;;;;;;;17.94;38.71;99098.09;5107986;28;20047;-84
2022/05/28 14:37:31;;;;;;;6.93;1.70;;;;;;;17.90;39.77;99085.03;5110071;28;20040;-88